^^
Peaceful Hills Weather Station Historical Data
Daily Summary for September 20, 2020 Units:  Metric    English   Both
Daily Weekly Monthly Yearly Custom
  High: Low: Average:
Temperature: 27.2 °C 14.9 °C 20.3 °C
Dew Point: 17.6 °C 11 °C 14.4 °C
Humidity: 83.6% 53.4% 70%
Wind Speed: 10.9km/h 0km/h 1.9km/h
Wind Gust: 33.8km/h - -
Wind- - SE
Pressure: 1023.6 hPa 1020.2 hPa -
Precipitation: 0 mm    
Historical Graphs
 
 
Tabular Data for September 20, 2020
Time Temperature Dew Point Pressure Wind Wind Speed Wind Gust Humidity Rainfall Rate (Hourly)
00:04 16.7 °C 11.6 °C 1021.9 hPa North 2.3 km/h 8 km/h 71.6% 0 mm
00:09 16.7 °C 11.6 °C 1021.9 hPa South 2.6 km/h 8 km/h 71.8% 0 mm
00:14 16.6 °C 11.3 °C 1021.9 hPa ENE 2.9 km/h 16.1 km/h 71% 0 mm
00:19 16.7 °C 11.4 °C 1021.9 hPa Calm   19.3 km/h 71% 0 mm
00:24 16.7 °C 11.3 °C 1021.9 hPa East 3.2 km/h 8 km/h 70.8% 0 mm
00:29 16.7 °C 11.4 °C 1021.9 hPa ESE 2.3 km/h 22.5 km/h 70.8% 0 mm
00:34 16.8 °C 11.2 °C 1021.9 hPa ENE 8 km/h 25.7 km/h 69.8% 0 mm
00:39 16.8 °C 11.1 °C 1021.9 hPa Calm   11.3 km/h 69.2% 0 mm
00:44 16.8 °C 11.1 °C 1021.9 hPa ESE 1.9 km/h 16.1 km/h 69.2% 0 mm
00:49 16.8 °C 11.2 °C 1021.9 hPa SSE 1.9 km/h 16.1 km/h 69.8% 0 mm
00:54 16.7 °C 11.2 °C 1021.9 hPa SSE 1.3 km/h 8 km/h 70.2% 0 mm
00:59 16.6 °C 11.2 °C 1021.6 hPa Calm   16.1 km/h 70.6% 0 mm
01:04 16.6 °C 11.2 °C 1021.6 hPa NNW 0.6 km/h 16.1 km/h 70.6% 0 mm
01:09 16.4 °C 11.2 °C 1021.6 hPa SE 1.6 km/h 14.5 km/h 71% 0 mm
01:14 16.4 °C 11.1 °C 1021.6 hPa NNE 1.3 km/h 14.5 km/h 71.2% 0 mm
01:19 16.3 °C 11.2 °C 1021.6 hPa East 1.6 km/h 14.5 km/h 71.6% 0 mm
01:24 16.3 °C 11.2 °C 1021.6 hPa SE 2.3 km/h 22.5 km/h 72% 0 mm
01:29 16.2 °C 11.2 °C 1021.6 hPa ESE 3.9 km/h 19.3 km/h 72% 0 mm
01:34 16.2 °C 11.1 °C 1021.6 hPa SE 3.2 km/h 19.3 km/h 72% 0 mm
01:39 16.1 °C 11.1 °C 1021.6 hPa East 0.6 km/h 14.5 km/h 72% 0 mm
01:44 16.1 °C 11.1 °C 1021.6 hPa ESE 4.8 km/h 22.5 km/h 72.2% 0 mm
01:49 16.1 °C 11 °C 1021.6 hPa Calm   14.5 km/h 72% 0 mm
01:54 16 °C 11.2 °C 1021.6 hPa Calm     73% 0 mm
01:59 15.9 °C 11.2 °C 1021.6 hPa Calm     73.4% 0 mm
02:04 15.8 °C 11.1 °C 1021.6 hPa SE 1.3 km/h 6.4 km/h 73.8% 0 mm
02:09 15.7 °C 11.1 °C 1021.6 hPa ENE 2.3 km/h 19.3 km/h 74% 0 mm
02:14 15.7 °C 11.1 °C 1021.6 hPa ESE 4.5 km/h 14.5 km/h 74% 0 mm
02:19 15.6 °C 11.2 °C 1021.6 hPa South 1.3 km/h 14.5 km/h 75% 0 mm
02:24 15.6 °C 11.2 °C 1021.6 hPa NNE 0.6 km/h 11.3 km/h 75% 0 mm
02:29 15.5 °C 11.1 °C 1021.6 hPa North 1.6 km/h 22.5 km/h 75% 0 mm
02:34 15.6 °C 11.2 °C 1021.2 hPa East 3.2 km/h 22.5 km/h 75% 0 mm
02:39 15.6 °C 11.2 °C 1021.2 hPa ENE 4.2 km/h 19.3 km/h 75% 0 mm
02:44 15.6 °C 11.2 °C 1021.2 hPa Calm   19.3 km/h 75.2% 0 mm
02:49 15.4 °C 11.1 °C 1021.2 hPa Calm   3.2 km/h 75.2% 0 mm
02:54 15.4 °C 11.2 °C 1021.2 hPa Calm   6.4 km/h 76% 0 mm
02:59 15.4 °C 11.2 °C 1021.2 hPa East 1.9 km/h 8 km/h 76% 0 mm
03:04 15.3 °C 11.2 °C 1021.2 hPa Calm   11.3 km/h 76.2% 0 mm
03:09 15.3 °C 11.2 °C 1021.2 hPa Calm   11.3 km/h 76.6% 0 mm
03:14 15.3 °C 11.3 °C 1021.2 hPa Calm     76.8% 0 mm
03:19 15.3 °C 11.3 °C 1021.2 hPa Calm   14.5 km/h 77% 0 mm
03:24 15.3 °C 11.3 °C 1021.2 hPa Calm   3.2 km/h 77% 0 mm
03:29 15.2 °C 11.3 °C 1021.2 hPa East 1.3 km/h 8 km/h 77.2% 0 mm
03:34 15.2 °C 11.3 °C 1021.2 hPa ENE 0.6 km/h 19.3 km/h 77.8% 0 mm
03:39 15.2 °C 11.3 °C 1021.2 hPa ENE 2.6 km/h 19.3 km/h 77.8% 0 mm
03:44 15.2 °C 11.3 °C 1021.2 hPa Calm   8 km/h 78% 0 mm
03:49 15.2 °C 11.4 °C 1021.2 hPa Calm   3.2 km/h 78.6% 0 mm
03:54 15.1 °C 11.4 °C 1021.2 hPa ENE 3.9 km/h 14.5 km/h 78.6% 0 mm
03:59 15.1 °C 11.5 °C 1021.2 hPa Calm   8 km/h 79% 0 mm
04:04 15.1 °C 11.5 °C 1020.9 hPa NE 1.6 km/h 19.3 km/h 79% 0 mm
04:09 15.2 °C 11.6 °C 1021.2 hPa ESE 2.9 km/h 8 km/h 79% 0 mm
04:14 15.2 °C 11.6 °C 1020.9 hPa Calm   14.5 km/h 79% 0 mm
04:19 15.2 °C 11.6 °C 1020.9 hPa SE 2.9 km/h 11.3 km/h 79% 0 mm
04:24 15.2 °C 11.6 °C 1021.2 hPa East 2.3 km/h 19.3 km/h 79% 0 mm
04:29 15.1 °C 11.6 °C 1021.2 hPa SE 1.3 km/h 14.5 km/h 79.8% 0 mm
04:34 15.1 °C 11.7 °C 1021.2 hPa Calm     80% 0 mm
04:39 15.2 °C 11.7 °C 1020.9 hPa ESE 1.6 km/h 11.3 km/h 80% 0 mm
04:44 15.2 °C 11.7 °C 1021.2 hPa SE 2.9 km/h 19.3 km/h 80% 0 mm
04:49 15.2 °C 11.8 °C 1021.2 hPa East 0.6 km/h 19.3 km/h 80.4% 0 mm
04:54 15.1 °C 11.9 °C 1021.2 hPa ESE 1.3 km/h 11.3 km/h 80.8% 0 mm
04:59 15.1 °C 11.9 °C 1021.2 hPa Calm     81% 0 mm
05:04 15.1 °C 11.9 °C 1021.2 hPa Calm     81% 0 mm
05:09 15.1 °C 11.8 °C 1021.2 hPa East 1.3 km/h 11.3 km/h 81% 0 mm
05:14 15.1 °C 11.9 °C 1021.2 hPa ESE 2.3 km/h 11.3 km/h 81.6% 0 mm
05:19 15.1 °C 11.9 °C 1021.2 hPa Calm   3.2 km/h 81.6% 0 mm
05:24 14.9 °C 11.9 °C 1021.2 hPa East 0.6 km/h 6.4 km/h 82% 0 mm
05:29 14.9 °C 12 °C 1021.2 hPa Calm   3.2 km/h 82.8% 0 mm
05:34 15.1 °C 12.1 °C 1021.6 hPa NE 1.9 km/h 8 km/h 82.4% 0 mm
05:39 15.1 °C 12.1 °C 1021.6 hPa ESE 1.9 km/h 11.3 km/h 82% 0 mm
05:44 15.2 °C 12.1 °C 1021.6 hPa East 2.6 km/h 16.1 km/h 82% 0 mm
05:49 15.2 °C 12.1 °C 1021.6 hPa Calm   11.3 km/h 82% 0 mm
05:54 15.2 °C 12.1 °C 1021.6 hPa Calm     82% 0 mm
05:59 15.1 °C 12.1 °C 1021.6 hPa East 0.6 km/h 3.2 km/h 82% 0 mm
06:04 15.1 °C 12.1 °C 1021.6 hPa East 0.6 km/h 6.4 km/h 82.2% 0 mm
06:09 15.1 °C 12.2 °C 1021.9 hPa Calm   6.4 km/h 83% 0 mm
06:14 15.1 °C 12.2 °C 1021.9 hPa Calm     83% 0 mm
06:19 15.1 °C 12.2 °C 1021.9 hPa SSE 0.6 km/h 3.2 km/h 83% 0 mm
06:24 15.2 °C 12.3 °C 1021.9 hPa Calm   6.4 km/h 83% 0 mm
06:29 15.2 °C 12.3 °C 1021.9 hPa East 1.9 km/h 8 km/h 83% 0 mm
06:34 15.3 °C 12.4 °C 1021.9 hPa Calm   3.2 km/h 83% 0 mm
06:39 15.3 °C 12.4 °C 1021.9 hPa Calm     83% 0 mm
06:44 15.3 °C 12.4 °C 1021.9 hPa Calm     83% 0 mm
06:49 15.4 °C 12.5 °C 1021.9 hPa East 0.6 km/h 3.2 km/h 83% 0 mm
06:54 15.4 °C 12.5 °C 1022.2 hPa Calm   3.2 km/h 83% 0 mm
06:59 15.4 °C 12.5 °C 1022.2 hPa Calm     83% 0 mm
07:04 15.4 °C 12.5 °C 1022.2 hPa Calm     83% 0 mm
07:09 15.3 °C 12.4 °C 1022.2 hPa Calm     83% 0 mm
07:14 15.4 °C 12.5 °C 1022.2 hPa Calm     83% 0 mm
07:19 15.4 °C 12.6 °C 1022.2 hPa Calm     83.6% 0 mm
07:24 15.4 °C 12.6 °C 1022.2 hPa Calm     83.6% 0 mm
07:29 15.4 °C 12.7 °C 1022.6 hPa Calm   19.3 km/h 83.6% 0 mm
07:34 15.4 °C 12.6 °C 1022.6 hPa Calm   11.3 km/h 83% 0 mm
07:39 15.4 °C 12.6 °C 1022.6 hPa ESE 1.6 km/h 11.3 km/h 83% 0 mm
07:44 15.5 °C 12.6 °C 1022.6 hPa Calm   19.3 km/h 83% 0 mm
07:49 15.5 °C 12.6 °C 1022.9 hPa Calm   8 km/h 83% 0 mm
07:54 15.6 °C 12.7 °C 1022.9 hPa Calm   6.4 km/h 83% 0 mm
07:59 15.6 °C 12.8 °C 1022.9 hPa Calm     83.4% 0 mm
08:04 15.7 °C 12.9 °C 1022.9 hPa Calm   3.2 km/h 83.4% 0 mm
08:09 15.9 °C 13 °C 1022.9 hPa Calm     83% 0 mm
08:14 16.2 °C 13.3 °C 1022.9 hPa Calm   14.5 km/h 83.4% 0 mm
08:19 16.5 °C 13.4 °C 1022.9 hPa Calm   14.5 km/h 82.2% 0 mm
08:24 16.8 °C 13.6 °C 1022.9 hPa Calm   3.2 km/h 81.6% 0 mm
08:29 16.9 °C 13.7 °C 1023.2 hPa East 0.6 km/h 6.4 km/h 81.2% 0 mm
08:34 17.2 °C 13.8 °C 1023.2 hPa Calm   6.4 km/h 80.4% 0 mm
08:39 17.4 °C 13.9 °C 1023.2 hPa NNE 1.3 km/h 8 km/h 80.2% 0 mm
08:44 17.6 °C 14.1 °C 1023.2 hPa ENE 2.9 km/h 19.3 km/h 79.8% 0 mm
08:49 17.7 °C 14 °C 1023.2 hPa Calm   11.3 km/h 79% 0 mm
08:54 17.8 °C 14.1 °C 1023.2 hPa North 1.3 km/h 11.3 km/h 79% 0 mm
08:59 17.9 °C 14.2 °C 1023.2 hPa East 0.6 km/h 14.5 km/h 79% 0 mm
09:04 18 °C 14.3 °C 1023.2 hPa SE 1.6 km/h 8 km/h 79% 0 mm
09:09 18.2 °C 14.4 °C 1023.6 hPa Calm     78.6% 0 mm
09:14 18.3 °C 14.4 °C 1023.6 hPa Calm     78% 0 mm
09:19 18.5 °C 14.7 °C 1023.6 hPa Calm     78.6% 0 mm
09:24 18.7 °C 14.7 °C 1023.6 hPa Calm     77.6% 0 mm
09:29 18.8 °C 14.8 °C 1023.6 hPa Calm     78% 0 mm
09:34 18.8 °C 14.9 °C 1023.6 hPa Calm     78% 0 mm
09:39 18.9 °C 15 °C 1023.6 hPa Calm     77.8% 0 mm
09:49 19.5 °C 15.7 °C 1023.6 hPa WNW 2.3 km/h 11.3 km/h 78.4% 0 mm
09:54 19.8 °C 15.5 °C 1023.6 hPa ENE 2.3 km/h 14.5 km/h 76.2% 0 mm
09:59 19.9 °C 15.5 °C 1023.6 hPa East 4.5 km/h 19.3 km/h 75.6% 0 mm
10:04 20.1 °C 15.7 °C 1023.6 hPa NNE 2.6 km/h 25.7 km/h 75.8% 0 mm
10:09 20.2 °C 15.7 °C 1023.6 hPa North 0.6 km/h 25.7 km/h 75.6% 0 mm
10:14 20.3 °C 15.8 °C 1023.6 hPa ESE 1.3 km/h 25.7 km/h 75.4% 0 mm
10:19 20.6 °C 16.1 °C 1023.6 hPa North 1.3 km/h 11.3 km/h 75.8% 0 mm
10:24 20.8 °C 16.2 °C 1023.6 hPa NW 2.6 km/h 14.5 km/h 75% 0 mm
10:29 20.8 °C 16.1 °C 1023.6 hPa ENE 2.6 km/h 14.5 km/h 74.2% 0 mm
10:34 20.9 °C 16.2 °C 1023.6 hPa East 2.3 km/h 19.3 km/h 74.4% 0 mm
10:39 21.2 °C 16.2 °C 1023.6 hPa ENE 3.9 km/h 19.3 km/h 73.2% 0 mm
10:44 21.5 °C 16.4 °C 1023.6 hPa SE 3.2 km/h 19.3 km/h 73.2% 0 mm
10:49 21.8 °C 16.6 °C 1023.6 hPa NNW 3.9 km/h 14.5 km/h 72.4% 0 mm
10:54 21.9 °C 16.5 °C 1023.6 hPa North 6.4 km/h 14.5 km/h 71.6% 0 mm
10:59 21.9 °C 16.7 °C 1023.2 hPa ENE 2.9 km/h 16.1 km/h 72.4% 0 mm
11:04 22.1 °C 16.8 °C 1023.2 hPa ESE 2.6 km/h 14.5 km/h 72.2% 0 mm
11:09 22.2 °C 16.8 °C 1023.2 hPa NNW 1.3 km/h 8 km/h 71.6% 0 mm
11:14 22.2 °C 16.7 °C 1023.2 hPa ENE 2.3 km/h 11.3 km/h 71% 0 mm
11:19 22.5 °C 16.8 °C 1023.2 hPa NE 3.5 km/h 14.5 km/h 70.2% 0 mm
11:24 22.8 °C 16.9 °C 1023.2 hPa ESE 2.3 km/h 11.3 km/h 69.8% 0 mm
11:29 22.9 °C 16.9 °C 1023.2 hPa NNE 3.2 km/h 14.5 km/h 69.2% 0 mm
11:34 23.2 °C 17.2 °C 1023.2 hPa ESE 4.5 km/h 16.1 km/h 69.2% 0 mm
11:39 23.4 °C 17.1 °C 1022.9 hPa Calm   16.1 km/h 67.8% 0 mm
11:44 23.7 °C 17.6 °C 1022.9 hPa Calm   14.5 km/h 68.4% 0 mm
11:49 23.9 °C 17.3 °C 1022.9 hPa NW 2.9 km/h 11.3 km/h 66.8% 0 mm
11:54 23.9 °C 17.4 °C 1022.9 hPa ESE 1.9 km/h 19.3 km/h 66.8% 0 mm
11:59 24 °C 17.3 °C 1022.9 hPa NW 1.9 km/h 16.1 km/h 66.4% 0 mm
12:04 23.9 °C 17.3 °C 1022.9 hPa NE 6.8 km/h 22.5 km/h 66.2% 0 mm
12:09 24.1 °C 17.1 °C 1022.9 hPa West 0.6 km/h 22.5 km/h 65.2% 0 mm
12:14 24.2 °C 17.1 °C 1022.9 hPa NNW 4.5 km/h 14.5 km/h 64.8% 0 mm
12:19 24.3 °C 17.2 °C 1022.9 hPa NNW 2.9 km/h 16.1 km/h 64.2% 0 mm
12:24 24.5 °C 16.9 °C 1022.9 hPa NNW 2.9 km/h 16.1 km/h 62.8% 0 mm
12:29 24.6 °C 17.1 °C 1022.9 hPa NNW 4.5 km/h 16.1 km/h 63.2% 0 mm
12:34 24.6 °C 17.1 °C 1022.9 hPa WNW 3.9 km/h 14.5 km/h 62.8% 0 mm
12:39 24.7 °C 17.1 °C 1022.6 hPa NE 2.6 km/h 16.1 km/h 62.4% 0 mm
12:44 24.9 °C 16.9 °C 1022.6 hPa SE 5.5 km/h 16.1 km/h 61.4% 0 mm
12:49 25.1 °C 17.1 °C 1022.6 hPa East 3.9 km/h 16.1 km/h 61.4% 0 mm
12:54 25.4 °C 17.4 °C 1022.6 hPa East 3.5 km/h 14.5 km/h 61.4% 0 mm
12:59 25.6 °C 17.3 °C 1022.6 hPa NNE 5.8 km/h 22.5 km/h 60.2% 0 mm
13:04 25.7 °C 17 °C 1022.6 hPa ENE 7.4 km/h 29 km/h 58.6% 0 mm
13:09 25.8 °C 16.8 °C 1022.6 hPa East 1.9 km/h 14.5 km/h 57.6% 0 mm
13:14 25.9 °C 16.8 °C 1022.6 hPa ESE 5.5 km/h 19.3 km/h 57.2% 0 mm
13:19 26.1 °C 17.2 °C 1022.6 hPa NNE 1.6 km/h 16.1 km/h 58.2% 0 mm
13:24 26.1 °C 17.2 °C 1022.2 hPa WNW 2.9 km/h 29 km/h 58.2% 0 mm
13:29 26.2 °C 16.7 °C 1022.2 hPa East 8 km/h 25.7 km/h 56% 0 mm
13:34 26.2 °C 16.6 °C 1022.2 hPa ENE 8 km/h 25.7 km/h 55.6% 0 mm
13:39 26.2 °C 16.8 °C 1022.2 hPa WSW 4.5 km/h 19.3 km/h 56.2% 0 mm
13:44 26.3 °C 16.9 °C 1021.9 hPa SE 2.3 km/h 14.5 km/h 56.4% 0 mm
13:49 26.4 °C 16.9 °C 1021.9 hPa East 1.6 km/h 14.5 km/h 55.8% 0 mm
13:54 26.6 °C 16.9 °C 1021.9 hPa SW 4.8 km/h 14.5 km/h 55.4% 0 mm
13:59 26.6 °C 16.8 °C 1021.9 hPa NNE 6.4 km/h 14.5 km/h 54.8% 0 mm
14:04 26.7 °C 16.9 °C 1021.9 hPa South 5.8 km/h 16.1 km/h 54.8% 0 mm
14:09 26.8 °C 16.9 °C 1021.6 hPa NE 6.1 km/h 25.7 km/h 54.6% 0 mm
14:14 26.8 °C 17.1 °C 1021.6 hPa SE 4.5 km/h 25.7 km/h 55.4% 0 mm
14:19 26.8 °C 16.9 °C 1021.6 hPa SE 0.6 km/h 14.5 km/h 54.8% 0 mm
14:24 26.9 °C 16.9 °C 1021.2 hPa ESE 9 km/h 22.5 km/h 54.2% 0 mm
14:29 26.9 °C 16.7 °C 1021.2 hPa East 6.8 km/h 22.5 km/h 53.6% 0 mm
14:34 26.9 °C 16.8 °C 1021.2 hPa East 2.9 km/h 16.1 km/h 54% 0 mm
14:39 26.9 °C 17.2 °C 1021.2 hPa Calm   14.5 km/h 55.2% 0 mm
14:44 26.8 °C 16.6 °C 1021.2 hPa ESE 10 km/h 33.8 km/h 53.6% 0 mm
14:49 26.7 °C 16.5 °C 1020.9 hPa SE 5.5 km/h 33.8 km/h 53.4% 0 mm
14:54 26.8 °C 16.8 °C 1020.9 hPa East 10.9 km/h 30.6 km/h 54.4% 0 mm
14:59 26.8 °C 16.8 °C 1020.9 hPa NE 7.4 km/h 25.7 km/h 54.2% 0 mm
15:04 26.8 °C 16.7 °C 1020.9 hPa ESE 8 km/h 29 km/h 54% 0 mm
15:09 26.9 °C 17 °C 1020.5 hPa ESE 1.9 km/h 19.3 km/h 54.8% 0 mm
15:14 27 °C 16.9 °C 1020.5 hPa SE 4.5 km/h 22.5 km/h 54.2% 0 mm
15:19 26.9 °C 17.4 °C 1020.5 hPa SE 1.9 km/h 22.5 km/h 55.8% 0 mm
15:24 26.9 °C 17.6 °C 1020.5 hPa West 2.9 km/h 11.3 km/h 56.6% 0 mm
15:29 27 °C 17.3 °C 1020.5 hPa SSE 5.1 km/h 16.1 km/h 55.2% 0 mm
15:34 27 °C 16.8 °C 1020.5 hPa ESE 9 km/h 30.6 km/h 53.8% 0 mm
15:39 26.9 °C 17 °C 1020.5 hPa SSW 2.9 km/h 30.6 km/h 54.6% 0 mm
15:44 26.9 °C 16.9 °C 1020.5 hPa SSE 4.5 km/h 25.7 km/h 54.4% 0 mm
15:49 26.9 °C 16.9 °C 1020.5 hPa SE 5.8 km/h 25.7 km/h 54.4% 0 mm
15:54 26.9 °C 17.2 °C 1020.5 hPa WNW 1.9 km/h 14.5 km/h 55.2% 0 mm
15:59 26.9 °C 17.3 °C 1020.5 hPa WNW 0.6 km/h 14.5 km/h 55.6% 0 mm
16:04 26.9 °C 17.3 °C 1020.5 hPa Calm   3.2 km/h 55.6% 0 mm
16:09 27.1 °C 17.5 °C 1020.5 hPa Calm   3.2 km/h 55.8% 0 mm
16:14 27.2 °C 17.3 °C 1020.5 hPa ENE 2.3 km/h 14.5 km/h 55% 0 mm
16:19 27.1 °C 17.2 °C 1020.5 hPa ENE 2.6 km/h 8 km/h 54.8% 0 mm
16:24 26.9 °C 17.5 °C 1020.5 hPa SSE 0.6 km/h 25.7 km/h 56.2% 0 mm
16:29 27.1 °C 17.6 °C 1020.2 hPa ENE 1.3 km/h 6.4 km/h 56% 0 mm
16:39 27.2 °C 17.1 °C 1020.2 hPa NNW 2.3 km/h 19.3 km/h 54.2% 0 mm
16:44 27.1 °C 17.4 °C 1020.2 hPa Calm   19.3 km/h 55.6% 0 mm
16:49 27.2 °C 17.3 °C 1020.2 hPa East 1.9 km/h 22.5 km/h 54.8% 0 mm
16:54 27.1 °C 17.1 °C 1020.2 hPa NE 0.6 km/h 22.5 km/h 54.6% 0 mm
16:59 26.9 °C 17.1 °C 1020.2 hPa SSE 1.3 km/h 19.3 km/h 54.8% 0 mm
17:04 26.7 °C 17.1 °C 1020.2 hPa East 3.9 km/h 22.5 km/h 55.6% 0 mm
17:09 26.6 °C 16.7 °C 1020.2 hPa SE 4.5 km/h 22.5 km/h 54.6% 0 mm
17:14 26.6 °C 16.7 °C 1020.2 hPa SE 1.6 km/h 22.5 km/h 54.8% 0 mm
17:19 26.6 °C 16.9 °C 1020.2 hPa ESE 0.6 km/h 14.5 km/h 55.6% 0 mm
17:24 26.6 °C 16.8 °C 1020.2 hPa SSE 0.6 km/h 3.2 km/h 55% 0 mm
17:29 26.5 °C 16.8 °C 1020.2 hPa Calm   11.3 km/h 55.2% 0 mm
17:34 26.4 °C 16.7 °C 1020.5 hPa WNW 1.3 km/h 11.3 km/h 55.4% 0 mm
17:39 26.2 °C 16.6 °C 1020.2 hPa Calm   11.3 km/h 55.6% 0 mm
17:44 25.9 °C 16.6 °C 1020.5 hPa Calm   8 km/h 56.2% 0 mm
17:49 25.8 °C 16.7 °C 1020.5 hPa Calm   3.2 km/h 57.4% 0 mm
17:54 25.7 °C 16.9 °C 1020.5 hPa NE 1.9 km/h 8 km/h 58.4% 0 mm
17:59 25.6 °C 17.1 °C 1020.5 hPa Calm   16.1 km/h 59.4% 0 mm
18:04 25.5 °C 16.8 °C 1020.5 hPa Calm   16.1 km/h 58.8% 0 mm
18:09 25.4 °C 17.1 °C 1020.5 hPa Calm   16.1 km/h 60% 0 mm
18:14 25.3 °C 17.1 °C 1020.5 hPa Calm   6.4 km/h 60.4% 0 mm
18:19 25.2 °C 17.1 °C 1020.5 hPa Calm   3.2 km/h 60.6% 0 mm
18:24 25.1 °C 16.9 °C 1020.5 hPa Calm     60.6% 0 mm
18:29 25.1 °C 17.2 °C 1020.5 hPa Calm     62% 0 mm
18:34 24.9 °C 17.2 °C 1020.5 hPa Calm     62.2% 0 mm
18:39 24.7 °C 17.3 °C 1020.5 hPa Calm     63.2% 0 mm
18:44 24.6 °C 17.4 °C 1020.9 hPa Calm     64.6% 0 mm
18:49 24.4 °C 17.6 °C 1020.9 hPa Calm     65.4% 0 mm
18:54 24.3 °C 17.6 °C 1020.9 hPa Calm     66.2% 0 mm
Hot Springs, Arkansas, USA
Compliments of Weather Underground - 4 mb